sensor_id;sensor_type;location;lat;lon;timestamp;temperature;humidity
43808;DHT22;29438;50.664;10.098;2023-09-19T00:01:06;15.30;88.00
43808;DHT22;29438;50.664;10.098;2023-09-19T00:03:36;15.30;88.20
43808;DHT22;29438;50.664;10.098;2023-09-19T00:06:08;15.20;88.30
43808;DHT22;29438;50.664;10.098;2023-09-19T00:08:38;15.20;88.50
43808;DHT22;29438;50.664;10.098;2023-09-19T00:11:04;15.20;88.60
43808;DHT22;29438;50.664;10.098;2023-09-19T00:13:32;15.20;88.70
43808;DHT22;29438;50.664;10.098;2023-09-19T00:15:59;15.30;88.70
43808;DHT22;29438;50.664;10.098;2023-09-19T00:18:25;15.40;88.50
43808;DHT22;29438;50.664;10.098;2023-09-19T00:20:58;15.40;88.50
43808;DHT22;29438;50.664;10.098;2023-09-19T00:23:24;15.30;88.40
43808;DHT22;29438;50.664;10.098;2023-09-19T00:25:50;15.30;88.90
43808;DHT22;29438;50.664;10.098;2023-09-19T00:28:17;15.30;88.80
43808;DHT22;29438;50.664;10.098;2023-09-19T00:30:44;15.30;88.80
43808;DHT22;29438;50.664;10.098;2023-09-19T00:33:09;15.30;88.70
43808;DHT22;29438;50.664;10.098;2023-09-19T00:35:36;15.40;88.80
43808;DHT22;29438;50.664;10.098;2023-09-19T00:38:02;15.30;88.80
43808;DHT22;29438;50.664;10.098;2023-09-19T00:40:29;15.30;89.00
43808;DHT22;29438;50.664;10.098;2023-09-19T00:42:57;15.20;89.20
43808;DHT22;29438;50.664;10.098;2023-09-19T00:45:25;15.30;89.30
43808;DHT22;29438;50.664;10.098;2023-09-19T00:47:51;15.30;89.20
43808;DHT22;29438;50.664;10.098;2023-09-19T00:50:23;15.20;89.10
43808;DHT22;29438;50.664;10.098;2023-09-19T00:52:53;15.20;89.20
43808;DHT22;29438;50.664;10.098;2023-09-19T00:55:21;15.20;89.20
43808;DHT22;29438;50.664;10.098;2023-09-19T00:57:47;15.30;89.10
43808;DHT22;29438;50.664;10.098;2023-09-19T01:00:15;15.20;89.20
43808;DHT22;29438;50.664;10.098;2023-09-19T01:02:42;15.30;89.20
43808;DHT22;29438;50.664;10.098;2023-09-19T01:05:09;15.40;89.00
43808;DHT22;29438;50.664;10.098;2023-09-19T01:07:36;15.40;88.80
43808;DHT22;29438;50.664;10.098;2023-09-19T01:10:05;15.30;88.70
43808;DHT22;29438;50.664;10.098;2023-09-19T01:15:40;15.40;88.80
43808;DHT22;29438;50.664;10.098;2023-09-19T01:18:16;15.40;88.80
43808;DHT22;29438;50.664;10.098;2023-09-19T01:23:27;15.40;88.60
43808;DHT22;29438;50.664;10.098;2023-09-19T01:26:29;15.40;88.80
43808;DHT22;29438;50.664;10.098;2023-09-19T01:29:19;15.40;88.60
43808;DHT22;29438;50.664;10.098;2023-09-19T01:31:51;15.40;88.40
43808;DHT22;29438;50.664;10.098;2023-09-19T01:34:19;15.30;88.50
43808;DHT22;29438;50.664;10.098;2023-09-19T01:36:45;15.30;88.50
43808;DHT22;29438;50.664;10.098;2023-09-19T01:39:13;15.40;88.20
43808;DHT22;29438;50.664;10.098;2023-09-19T01:42:24;15.40;88.20
43808;DHT22;29438;50.664;10.098;2023-09-19T01:44:40;15.50;88.00
43808;DHT22;29438;50.664;10.098;2023-09-19T01:47:26;15.50;88.00
43808;DHT22;29438;50.664;10.098;2023-09-19T01:50:07;15.60;87.90
43808;DHT22;29438;50.664;10.098;2023-09-19T01:52:43;15.70;87.60
43808;DHT22;29438;50.664;10.098;2023-09-19T01:55:12;15.60;87.60
43808;DHT22;29438;50.664;10.098;2023-09-19T01:57:58;15.60;87.70
43808;DHT22;29438;50.664;10.098;2023-09-19T02:00:27;15.60;87.60
43808;DHT22;29438;50.664;10.098;2023-09-19T02:02:56;15.50;87.60
43808;DHT22;29438;50.664;10.098;2023-09-19T02:05:25;15.50;87.70
43808;DHT22;29438;50.664;10.098;2023-09-19T02:07:51;15.50;87.80
43808;DHT22;29438;50.664;10.098;2023-09-19T02:10:18;15.40;88.00
43808;DHT22;29438;50.664;10.098;2023-09-19T02:12:44;15.40;88.20
43808;DHT22;29438;50.664;10.098;2023-09-19T02:15:10;15.40;88.10
43808;DHT22;29438;50.664;10.098;2023-09-19T02:17:36;15.50;88.00
43808;DHT22;29438;50.664;10.098;2023-09-19T02:20:01;15.60;87.60
43808;DHT22;29438;50.664;10.098;2023-09-19T02:22:28;15.70;87.10
43808;DHT22;29438;50.664;10.098;2023-09-19T02:24:54;15.60;87.10
43808;DHT22;29438;50.664;10.098;2023-09-19T02:27:23;15.70;87.30
43808;DHT22;29438;50.664;10.098;2023-09-19T02:29:49;15.60;87.50
43808;DHT22;29438;50.664;10.098;2023-09-19T02:32:15;15.60;87.70
43808;DHT22;29438;50.664;10.098;2023-09-19T02:34:43;15.60;87.90
43808;DHT22;29438;50.664;10.098;2023-09-19T02:37:10;15.60;87.60
43808;DHT22;29438;50.664;10.098;2023-09-19T02:39:36;15.50;87.90
43808;DHT22;29438;50.664;10.098;2023-09-19T02:42:01;15.50;88.00
43808;DHT22;29438;50.664;10.098;2023-09-19T02:44:29;15.50;87.90
43808;DHT22;29438;50.664;10.098;2023-09-19T02:46:55;15.50;87.40
43808;DHT22;29438;50.664;10.098;2023-09-19T02:49:22;15.50;87.50
43808;DHT22;29438;50.664;10.098;2023-09-19T02:51:48;15.50;87.70
43808;DHT22;29438;50.664;10.098;2023-09-19T02:54:13;15.50;87.80
43808;DHT22;29438;50.664;10.098;2023-09-19T02:56:41;15.40;87.30
43808;DHT22;29438;50.664;10.098;2023-09-19T02:59:06;15.30;87.20
43808;DHT22;29438;50.664;10.098;2023-09-19T03:01:32;15.20;86.60
43808;DHT22;29438;50.664;10.098;2023-09-19T03:03:59;15.20;86.70
43808;DHT22;29438;50.664;10.098;2023-09-19T03:06:24;15.10;86.90
43808;DHT22;29438;50.664;10.098;2023-09-19T03:08:50;15.00;86.70
43808;DHT22;29438;50.664;10.098;2023-09-19T03:11:17;15.00;86.50
43808;DHT22;29438;50.664;10.098;2023-09-19T03:13:50;14.90;86.60
43808;DHT22;29438;50.664;10.098;2023-09-19T03:16:16;14.90;86.60
43808;DHT22;29438;50.664;10.098;2023-09-19T03:18:42;14.80;86.90
43808;DHT22;29438;50.664;10.098;2023-09-19T03:21:07;14.70;86.30
43808;DHT22;29438;50.664;10.098;2023-09-19T03:23:33;14.60;86.90
43808;DHT22;29438;50.664;10.098;2023-09-19T03:25:58;14.60;87.10
43808;DHT22;29438;50.664;10.098;2023-09-19T03:28:24;14.50;87.50
43808;DHT22;29438;50.664;10.098;2023-09-19T03:31:05;14.60;88.00
43808;DHT22;29438;50.664;10.098;2023-09-19T03:33:30;14.60;87.50
43808;DHT22;29438;50.664;10.098;2023-09-19T03:36:02;14.60;87.10
43808;DHT22;29438;50.664;10.098;2023-09-19T03:38:32;14.50;86.70
43808;DHT22;29438;50.664;10.098;2023-09-19T03:40:58;14.40;87.10
43808;DHT22;29438;50.664;10.098;2023-09-19T03:43:24;14.30;87.00
43808;DHT22;29438;50.664;10.098;2023-09-19T03:45:50;14.20;86.70
43808;DHT22;29438;50.664;10.098;2023-09-19T03:48:16;14.10;85.80
43808;DHT22;29438;50.664;10.098;2023-09-19T03:50:41;13.90;85.60
43808;DHT22;29438;50.664;10.098;2023-09-19T03:53:09;13.80;85.00
43808;DHT22;29438;50.664;10.098;2023-09-19T03:55:35;13.70;84.70
43808;DHT22;29438;50.664;10.098;2023-09-19T03:58:05;13.70;84.70
43808;DHT22;29438;50.664;10.098;2023-09-19T04:00:31;13.70;84.50
43808;DHT22;29438;50.664;10.098;2023-09-19T04:02:57;13.70;84.20
43808;DHT22;29438;50.664;10.098;2023-09-19T04:05:23;13.70;83.50
43808;DHT22;29438;50.664;10.098;2023-09-19T04:07:49;13.70;83.50
43808;DHT22;29438;50.664;10.098;2023-09-19T04:10:15;13.70;83.70
43808;DHT22;29438;50.664;10.098;2023-09-19T04:12:50;13.70;82.60
43808;DHT22;29438;50.664;10.098;2023-09-19T04:15:17;13.70;82.20
43808;DHT22;29438;50.664;10.098;2023-09-19T04:17:42;13.50;82.50
43808;DHT22;29438;50.664;10.098;2023-09-19T04:20:08;13.50;82.60
43808;DHT22;29438;50.664;10.098;2023-09-19T04:22:37;13.50;82.40
43808;DHT22;29438;50.664;10.098;2023-09-19T04:25:04;13.40;82.70
43808;DHT22;29438;50.664;10.098;2023-09-19T04:27:29;13.30;82.80
43808;DHT22;29438;50.664;10.098;2023-09-19T04:29:55;13.30;83.10
43808;DHT22;29438;50.664;10.098;2023-09-19T04:32:28;13.30;83.30
43808;DHT22;29438;50.664;10.098;2023-09-19T04:34:53;13.20;83.50
43808;DHT22;29438;50.664;10.098;2023-09-19T04:37:19;13.20;83.90
43808;DHT22;29438;50.664;10.098;2023-09-19T04:39:44;13.50;84.80
43808;DHT22;29438;50.664;10.098;2023-09-19T04:42:13;13.40;83.70
43808;DHT22;29438;50.664;10.098;2023-09-19T04:44:40;13.30;83.80
43808;DHT22;29438;50.664;10.098;2023-09-19T04:47:05;13.20;84.30
43808;DHT22;29438;50.664;10.098;2023-09-19T04:49:31;13.10;84.90
43808;DHT22;29438;50.664;10.098;2023-09-19T04:51:57;13.20;85.90
43808;DHT22;29438;50.664;10.098;2023-09-19T04:54:22;13.20;86.10
43808;DHT22;29438;50.664;10.098;2023-09-19T04:56:48;13.20;86.60
43808;DHT22;29438;50.664;10.098;2023-09-19T04:59:13;13.30;87.10
43808;DHT22;29438;50.664;10.098;2023-09-19T05:01:40;13.50;87.60
43808;DHT22;29438;50.664;10.098;2023-09-19T05:04:06;13.70;87.90
43808;DHT22;29438;50.664;10.098;2023-09-19T05:06:31;13.70;87.60
43808;DHT22;29438;50.664;10.098;2023-09-19T05:09:00;13.80;87.80
43808;DHT22;29438;50.664;10.098;2023-09-19T05:11:26;13.90;87.40
43808;DHT22;29438;50.664;10.098;2023-09-19T05:13:52;14.00;87.30
43808;DHT22;29438;50.664;10.098;2023-09-19T05:16:18;14.00;87.20
43808;DHT22;29438;50.664;10.098;2023-09-19T05:18:44;14.00;87.20
43808;DHT22;29438;50.664;10.098;2023-09-19T05:21:09;14.00;87.30
43808;DHT22;29438;50.664;10.098;2023-09-19T05:23:35;14.20;86.80
43808;DHT22;29438;50.664;10.098;2023-09-19T05:26:00;14.30;86.30
43808;DHT22;29438;50.664;10.098;2023-09-19T05:28:27;14.40;85.70
43808;DHT22;29438;50.664;10.098;2023-09-19T05:30:53;14.60;85.30
43808;DHT22;29438;50.664;10.098;2023-09-19T05:33:19;14.50;85.10
43808;DHT22;29438;50.664;10.098;2023-09-19T05:35:45;14.60;84.80
43808;DHT22;29438;50.664;10.098;2023-09-19T05:38:13;14.70;84.00
43808;DHT22;29438;50.664;10.098;2023-09-19T05:40:40;14.70;83.80
43808;DHT22;29438;50.664;10.098;2023-09-19T05:43:10;14.70;83.70
43808;DHT22;29438;50.664;10.098;2023-09-19T05:45:36;14.80;83.30
43808;DHT22;29438;50.664;10.098;2023-09-19T05:48:11;14.80;83.40
43808;DHT22;29438;50.664;10.098;2023-09-19T05:50:37;14.80;83.60
43808;DHT22;29438;50.664;10.098;2023-09-19T05:53:03;14.80;83.80
43808;DHT22;29438;50.664;10.098;2023-09-19T05:55:30;14.90;84.20
43808;DHT22;29438;50.664;10.098;2023-09-19T05:57:55;14.90;83.60
43808;DHT22;29438;50.664;10.098;2023-09-19T06:00:22;15.20;83.50
43808;DHT22;29438;50.664;10.098;2023-09-19T06:02:55;15.30;82.70
43808;DHT22;29438;50.664;10.098;2023-09-19T06:05:21;15.20;82.80
43808;DHT22;29438;50.664;10.098;2023-09-19T06:07:47;15.20;82.70
43808;DHT22;29438;50.664;10.098;2023-09-19T06:10:13;15.20;82.70
43808;DHT22;29438;50.664;10.098;2023-09-19T06:12:40;15.20;83.20
43808;DHT22;29438;50.664;10.098;2023-09-19T06:15:06;15.10;82.90
43808;DHT22;29438;50.664;10.098;2023-09-19T06:17:34;15.10;83.00
43808;DHT22;29438;50.664;10.098;2023-09-19T06:20:05;15.20;82.60
43808;DHT22;29438;50.664;10.098;2023-09-19T06:22:36;15.20;83.00
43808;DHT22;29438;50.664;10.098;2023-09-19T06:25:02;15.20;82.90
43808;DHT22;29438;50.664;10.098;2023-09-19T06:27:27;15.20;82.80
43808;DHT22;29438;50.664;10.098;2023-09-19T06:29:54;15.20;82.50
43808;DHT22;29438;50.664;10.098;2023-09-19T06:32:27;15.30;81.90
43808;DHT22;29438;50.664;10.098;2023-09-19T06:34:52;15.40;81.50
43808;DHT22;29438;50.664;10.098;2023-09-19T06:37:20;15.60;81.10
43808;DHT22;29438;50.664;10.098;2023-09-19T06:39:46;15.70;81.10
43808;DHT22;29438;50.664;10.098;2023-09-19T06:42:15;15.70;80.90
43808;DHT22;29438;50.664;10.098;2023-09-19T06:44:42;15.80;80.30
43808;DHT22;29438;50.664;10.098;2023-09-19T06:47:08;15.70;80.60
43808;DHT22;29438;50.664;10.098;2023-09-19T06:49:35;15.90;80.00
43808;DHT22;29438;50.664;10.098;2023-09-19T06:52:00;16.00;79.50
43808;DHT22;29438;50.664;10.098;2023-09-19T06:54:26;16.10;79.20
43808;DHT22;29438;50.664;10.098;2023-09-19T06:56:56;16.10;79.20
43808;DHT22;29438;50.664;10.098;2023-09-19T06:59:24;16.20;79.40
43808;DHT22;29438;50.664;10.098;2023-09-19T07:01:49;15.80;79.10
43808;DHT22;29438;50.664;10.098;2023-09-19T07:04:16;15.70;79.90
43808;DHT22;29438;50.664;10.098;2023-09-19T07:06:44;15.70;80.30
43808;DHT22;29438;50.664;10.098;2023-09-19T07:09:11;15.60;80.50
43808;DHT22;29438;50.664;10.098;2023-09-19T07:11:37;15.70;80.80
43808;DHT22;29438;50.664;10.098;2023-09-19T07:14:03;15.50;81.10
43808;DHT22;29438;50.664;10.098;2023-09-19T07:16:31;15.60;81.30
43808;DHT22;29438;50.664;10.098;2023-09-19T07:18:56;15.70;80.90
43808;DHT22;29438;50.664;10.098;2023-09-19T07:21:23;15.80;80.90
43808;DHT22;29438;50.664;10.098;2023-09-19T07:23:49;16.00;80.30
43808;DHT22;29438;50.664;10.098;2023-09-19T07:26:15;16.30;79.20
43808;DHT22;29438;50.664;10.098;2023-09-19T07:28:41;16.50;78.50
43808;DHT22;29438;50.664;10.098;2023-09-19T07:31:06;16.70;78.00
43808;DHT22;29438;50.664;10.098;2023-09-19T07:33:36;16.70;77.80
43808;DHT22;29438;50.664;10.098;2023-09-19T07:36:02;16.80;77.80
43808;DHT22;29438;50.664;10.098;2023-09-19T07:38:27;16.90;77.40
43808;DHT22;29438;50.664;10.098;2023-09-19T07:40:59;17.20;76.50
43808;DHT22;29438;50.664;10.098;2023-09-19T07:43:25;17.20;75.70
43808;DHT22;29438;50.664;10.098;2023-09-19T07:45:50;17.40;75.40
43808;DHT22;29438;50.664;10.098;2023-09-19T07:48:16;17.60;73.80
43808;DHT22;29438;50.664;10.098;2023-09-19T07:50:41;17.20;74.40
43808;DHT22;29438;50.664;10.098;2023-09-19T07:53:09;17.40;73.30
43808;DHT22;29438;50.664;10.098;2023-09-19T07:55:34;17.20;73.60
43808;DHT22;29438;50.664;10.098;2023-09-19T07:58:00;17.50;73.30
43808;DHT22;29438;50.664;10.098;2023-09-19T08:00:26;17.40;71.90
43808;DHT22;29438;50.664;10.098;2023-09-19T08:02:51;17.40;72.20
43808;DHT22;29438;50.664;10.098;2023-09-19T08:05:17;17.30;71.10
43808;DHT22;29438;50.664;10.098;2023-09-19T08:07:46;17.40;70.70
43808;DHT22;29438;50.664;10.098;2023-09-19T08:10:15;17.40;72.00
43808;DHT22;29438;50.664;10.098;2023-09-19T08:12:45;17.70;71.80
43808;DHT22;29438;50.664;10.098;2023-09-19T08:15:16;18.20;69.20
43808;DHT22;29438;50.664;10.098;2023-09-19T08:17:41;18.70;68.50
43808;DHT22;29438;50.664;10.098;2023-09-19T08:20:08;18.60;68.50
43808;DHT22;29438;50.664;10.098;2023-09-19T08:22:42;19.00;68.20
43808;DHT22;29438;50.664;10.098;2023-09-19T08:25:08;19.30;66.20
43808;DHT22;29438;50.664;10.098;2023-09-19T08:27:34;19.20;64.90
43808;DHT22;29438;50.664;10.098;2023-09-19T08:30:01;19.00;64.80
43808;DHT22;29438;50.664;10.098;2023-09-19T08:32:29;18.90;65.20
43808;DHT22;29438;50.664;10.098;2023-09-19T08:34:54;18.00;66.60
43808;DHT22;29438;50.664;10.098;2023-09-19T08:37:20;17.90;67.80
43808;DHT22;29438;50.664;10.098;2023-09-19T08:39:45;18.00;67.70
43808;DHT22;29438;50.664;10.098;2023-09-19T08:42:11;18.20;68.00
43808;DHT22;29438;50.664;10.098;2023-09-19T08:44:38;18.30;66.60
43808;DHT22;29438;50.664;10.098;2023-09-19T08:47:15;18.10;67.50
43808;DHT22;29438;50.664;10.098;2023-09-19T08:50:01;18.50;67.70
43808;DHT22;29438;50.664;10.098;2023-09-19T08:52:38;19.20;65.10
43808;DHT22;29438;50.664;10.098;2023-09-19T08:55:06;19.80;64.10
43808;DHT22;29438;50.664;10.098;2023-09-19T08:57:33;20.20;62.30
43808;DHT22;29438;50.664;10.098;2023-09-19T09:00:02;20.40;60.70
43808;DHT22;29438;50.664;10.098;2023-09-19T09:02:31;20.00;61.50
43808;DHT22;29438;50.664;10.098;2023-09-19T09:04:59;19.70;62.50
43808;DHT22;29438;50.664;10.098;2023-09-19T09:07:25;19.30;62.20
43808;DHT22;29438;50.664;10.098;2023-09-19T09:09:53;18.90;63.20
43808;DHT22;29438;50.664;10.098;2023-09-19T09:12:19;18.70;64.60
43808;DHT22;29438;50.664;10.098;2023-09-19T09:14:46;18.10;65.60
43808;DHT22;29438;50.664;10.098;2023-09-19T09:17:16;18.70;64.90
43808;DHT22;29438;50.664;10.098;2023-09-19T09:19:46;19.10;63.80
43808;DHT22;29438;50.664;10.098;2023-09-19T09:22:12;19.30;63.10
43808;DHT22;29438;50.664;10.098;2023-09-19T09:24:53;19.70;62.50
43808;DHT22;29438;50.664;10.098;2023-09-19T09:27:20;19.60;61.90
43808;DHT22;29438;50.664;10.098;2023-09-19T09:29:49;19.70;62.20
43808;DHT22;29438;50.664;10.098;2023-09-19T09:34:55;20.80;59.50
43808;DHT22;29438;50.664;10.098;2023-09-19T09:37:21;21.50;56.90
43808;DHT22;29438;50.664;10.098;2023-09-19T09:40:01;21.40;54.60
43808;DHT22;29438;50.664;10.098;2023-09-19T09:42:55;21.40;54.80
43808;DHT22;29438;50.664;10.098;2023-09-19T09:45:24;21.70;54.90
43808;DHT22;29438;50.664;10.098;2023-09-19T09:47:59;21.80;53.20
43808;DHT22;29438;50.664;10.098;2023-09-19T09:50:33;22.70;50.70
43808;DHT22;29438;50.664;10.098;2023-09-19T09:53:25;23.00;51.80
43808;DHT22;29438;50.664;10.098;2023-09-19T09:56:08;22.80;50.20
43808;DHT22;29438;50.664;10.098;2023-09-19T10:01:13;22.70;52.80
43808;DHT22;29438;50.664;10.098;2023-09-19T10:03:41;23.10;50.90
43808;DHT22;29438;50.664;10.098;2023-09-19T10:06:11;22.40;51.20
43808;DHT22;29438;50.664;10.098;2023-09-19T10:09:01;22.70;51.00
43808;DHT22;29438;50.664;10.098;2023-09-19T10:11:47;21.70;51.30
43808;DHT22;29438;50.664;10.098;2023-09-19T10:14:20;21.50;53.20
43808;DHT22;29438;50.664;10.098;2023-09-19T10:16:49;20.90;54.00
43808;DHT22;29438;50.664;10.098;2023-09-19T10:19:20;20.70;53.20
43808;DHT22;29438;50.664;10.098;2023-09-19T10:21:49;20.80;53.10
43808;DHT22;29438;50.664;10.098;2023-09-19T10:24:15;20.50;54.50
43808;DHT22;29438;50.664;10.098;2023-09-19T10:26:44;20.30;54.70
43808;DHT22;29438;50.664;10.098;2023-09-19T10:29:13;20.10;54.10
43808;DHT22;29438;50.664;10.098;2023-09-19T10:31:42;20.20;55.80
43808;DHT22;29438;50.664;10.098;2023-09-19T10:34:14;20.50;54.30
43808;DHT22;29438;50.664;10.098;2023-09-19T10:36:44;20.30;54.60
43808;DHT22;29438;50.664;10.098;2023-09-19T10:39:11;20.40;54.10
43808;DHT22;29438;50.664;10.098;2023-09-19T10:41:39;20.80;53.80
43808;DHT22;29438;50.664;10.098;2023-09-19T10:44:05;20.80;54.10
43808;DHT22;29438;50.664;10.098;2023-09-19T10:46:32;21.00;50.70
43808;DHT22;29438;50.664;10.098;2023-09-19T10:48:59;21.40;51.40
43808;DHT22;29438;50.664;10.098;2023-09-19T10:51:29;21.20;51.50
43808;DHT22;29438;50.664;10.098;2023-09-19T10:54:01;21.90;51.80
43808;DHT22;29438;50.664;10.098;2023-09-19T10:56:33;22.00;49.30
43808;DHT22;29438;50.664;10.098;2023-09-19T10:59:09;21.70;49.40
43808;DHT22;29438;50.664;10.098;2023-09-19T11:01:51;21.90;49.80
43808;DHT22;29438;50.664;10.098;2023-09-19T11:04:31;22.30;48.20
43808;DHT22;29438;50.664;10.098;2023-09-19T11:07:07;22.20;47.60
43808;DHT22;29438;50.664;10.098;2023-09-19T11:09:53;22.10;48.90
43808;DHT22;29438;50.664;10.098;2023-09-19T11:14:58;22.20;48.50
43808;DHT22;29438;50.664;10.098;2023-09-19T11:17:30;21.90;48.00
43808;DHT22;29438;50.664;10.098;2023-09-19T11:30:42;21.60;50.50
43808;DHT22;29438;50.664;10.098;2023-09-19T11:33:28;21.30;49.90
43808;DHT22;29438;50.664;10.098;2023-09-19T11:36:11;21.20;50.50
43808;DHT22;29438;50.664;10.098;2023-09-19T11:46:55;21.80;49.50
43808;DHT22;29438;50.664;10.098;2023-09-19T11:49:29;21.10;50.10
43808;DHT22;29438;50.664;10.098;2023-09-19T11:52:02;21.10;50.70
43808;DHT22;29438;50.664;10.098;2023-09-19T11:54:34;21.20;50.70
43808;DHT22;29438;50.664;10.098;2023-09-19T11:57:02;21.00;50.50
43808;DHT22;29438;50.664;10.098;2023-09-19T11:59:29;20.50;51.60
43808;DHT22;29438;50.664;10.098;2023-09-19T12:02:06;20.80;52.20
43808;DHT22;29438;50.664;10.098;2023-09-19T12:04:35;21.10;50.60
43808;DHT22;29438;50.664;10.098;2023-09-19T12:09:31;21.60;50.70
43808;DHT22;29438;50.664;10.098;2023-09-19T12:11:57;21.50;49.00
43808;DHT22;29438;50.664;10.098;2023-09-19T12:14:24;21.20;50.60
43808;DHT22;29438;50.664;10.098;2023-09-19T12:16:55;21.10;50.10
43808;DHT22;29438;50.664;10.098;2023-09-19T12:19:21;20.40;51.00
43808;DHT22;29438;50.664;10.098;2023-09-19T12:22:01;20.20;54.30
43808;DHT22;29438;50.664;10.098;2023-09-19T12:24:30;20.10;52.40
43808;DHT22;29438;50.664;10.098;2023-09-19T12:27:06;20.20;51.60
43808;DHT22;29438;50.664;10.098;2023-09-19T12:29:42;20.90;50.90
43808;DHT22;29438;50.664;10.098;2023-09-19T12:32:08;21.30;50.50
43808;DHT22;29438;50.664;10.098;2023-09-19T12:34:34;21.00;50.50
43808;DHT22;29438;50.664;10.098;2023-09-19T12:37:07;21.00;50.80
43808;DHT22;29438;50.664;10.098;2023-09-19T12:39:49;20.80;50.40
43808;DHT22;29438;50.664;10.098;2023-09-19T12:42:24;20.70;50.50
43808;DHT22;29438;50.664;10.098;2023-09-19T12:44:51;20.20;50.70
43808;DHT22;29438;50.664;10.098;2023-09-19T12:47:26;19.60;52.10
43808;DHT22;29438;50.664;10.098;2023-09-19T12:50:10;19.50;52.40
43808;DHT22;29438;50.664;10.098;2023-09-19T12:52:49;20.10;51.90
43808;DHT22;29438;50.664;10.098;2023-09-19T12:55:22;20.40;49.10
43808;DHT22;29438;50.664;10.098;2023-09-19T12:57:58;20.60;49.30
43808;DHT22;29438;50.664;10.098;2023-09-19T13:00:38;20.10;50.50
43808;DHT22;29438;50.664;10.098;2023-09-19T13:03:29;20.00;50.30
43808;DHT22;29438;50.664;10.098;2023-09-19T13:06:01;20.10;51.30
43808;DHT22;29438;50.664;10.098;2023-09-19T13:08:28;20.50;49.80
43808;DHT22;29438;50.664;10.098;2023-09-19T13:11:15;20.40;50.10
43808;DHT22;29438;50.664;10.098;2023-09-19T13:13:49;20.50;51.40
43808;DHT22;29438;50.664;10.098;2023-09-19T13:16:19;20.50;51.40
43808;DHT22;29438;50.664;10.098;2023-09-19T13:18:52;20.30;51.70
43808;DHT22;29438;50.664;10.098;2023-09-19T13:21:32;20.20;50.60
43808;DHT22;29438;50.664;10.098;2023-09-19T13:24:24;20.40;49.80
43808;DHT22;29438;50.664;10.098;2023-09-19T13:26:53;20.30;50.00
43808;DHT22;29438;50.664;10.098;2023-09-19T13:29:19;19.80;51.10
43808;DHT22;29438;50.664;10.098;2023-09-19T13:31:51;19.80;52.50
43808;DHT22;29438;50.664;10.098;2023-09-19T13:34:18;19.60;52.20
43808;DHT22;29438;50.664;10.098;2023-09-19T13:36:45;19.20;53.60
43808;DHT22;29438;50.664;10.098;2023-09-19T13:39:11;19.50;53.70
43808;DHT22;29438;50.664;10.098;2023-09-19T13:41:40;19.40;53.20
43808;DHT22;29438;50.664;10.098;2023-09-19T13:44:07;19.70;51.30
43808;DHT22;29438;50.664;10.098;2023-09-19T13:46:33;19.20;52.50
43808;DHT22;29438;50.664;10.098;2023-09-19T13:49:04;19.20;53.00
43808;DHT22;29438;50.664;10.098;2023-09-19T13:51:31;19.20;52.40
43808;DHT22;29438;50.664;10.098;2023-09-19T13:53:57;19.10;51.70
43808;DHT22;29438;50.664;10.098;2023-09-19T13:56:22;19.20;51.80
43808;DHT22;29438;50.664;10.098;2023-09-19T13:58:49;19.20;52.20
43808;DHT22;29438;50.664;10.098;2023-09-19T14:01:14;19.50;51.00
43808;DHT22;29438;50.664;10.098;2023-09-19T14:03:41;19.50;51.10
43808;DHT22;29438;50.664;10.098;2023-09-19T14:06:11;19.70;51.20
43808;DHT22;29438;50.664;10.098;2023-09-19T14:08:37;19.70;50.10
43808;DHT22;29438;50.664;10.098;2023-09-19T14:11:07;19.70;51.50
43808;DHT22;29438;50.664;10.098;2023-09-19T14:13:33;19.70;50.80
43808;DHT22;29438;50.664;10.098;2023-09-19T14:16:11;19.90;51.50
43808;DHT22;29438;50.664;10.098;2023-09-19T14:18:37;19.60;52.70
43808;DHT22;29438;50.664;10.098;2023-09-19T14:21:05;19.60;52.00
43808;DHT22;29438;50.664;10.098;2023-09-19T14:23:38;19.30;51.10
43808;DHT22;29438;50.664;10.098;2023-09-19T14:26:04;19.20;52.00
43808;DHT22;29438;50.664;10.098;2023-09-19T14:28:31;19.30;52.80
43808;DHT22;29438;50.664;10.098;2023-09-19T14:31:04;19.40;51.40
43808;DHT22;29438;50.664;10.098;2023-09-19T14:33:30;19.40;50.40
43808;DHT22;29438;50.664;10.098;2023-09-19T14:35:56;19.20;52.20
43808;DHT22;29438;50.664;10.098;2023-09-19T14:38:22;19.20;51.90
43808;DHT22;29438;50.664;10.098;2023-09-19T14:40:47;19.20;52.10
43808;DHT22;29438;50.664;10.098;2023-09-19T14:43:15;19.10;52.40
43808;DHT22;29438;50.664;10.098;2023-09-19T14:45:41;18.90;53.20
43808;DHT22;29438;50.664;10.098;2023-09-19T14:48:06;18.70;53.60
43808;DHT22;29438;50.664;10.098;2023-09-19T14:50:32;18.60;53.10
43808;DHT22;29438;50.664;10.098;2023-09-19T14:52:58;18.70;54.80
43808;DHT22;29438;50.664;10.098;2023-09-19T14:55:27;18.80;56.50
43808;DHT22;29438;50.664;10.098;2023-09-19T14:57:54;18.80;55.90
43808;DHT22;29438;50.664;10.098;2023-09-19T15:00:22;18.80;56.00
43808;DHT22;29438;50.664;10.098;2023-09-19T15:02:49;18.60;55.60
43808;DHT22;29438;50.664;10.098;2023-09-19T15:05:16;18.40;56.50
43808;DHT22;29438;50.664;10.098;2023-09-19T15:07:41;18.40;54.90
43808;DHT22;29438;50.664;10.098;2023-09-19T15:10:07;18.30;55.10
43808;DHT22;29438;50.664;10.098;2023-09-19T15:12:35;18.20;56.30
43808;DHT22;29438;50.664;10.098;2023-09-19T15:15:04;18.20;56.40
43808;DHT22;29438;50.664;10.098;2023-09-19T15:17:30;18.20;56.00
43808;DHT22;29438;50.664;10.098;2023-09-19T15:19:56;18.20;56.60
43808;DHT22;29438;50.664;10.098;2023-09-19T15:22:21;18.20;56.60
43808;DHT22;29438;50.664;10.098;2023-09-19T15:24:48;18.20;56.40
43808;DHT22;29438;50.664;10.098;2023-09-19T15:27:13;18.20;56.80
43808;DHT22;29438;50.664;10.098;2023-09-19T15:29:39;18.20;57.90
43808;DHT22;29438;50.664;10.098;2023-09-19T15:32:04;18.30;56.80
43808;DHT22;29438;50.664;10.098;2023-09-19T15:34:30;18.20;56.40
43808;DHT22;29438;50.664;10.098;2023-09-19T15:36:56;18.20;56.90
43808;DHT22;29438;50.664;10.098;2023-09-19T15:39:21;18.20;55.70
43808;DHT22;29438;50.664;10.098;2023-09-19T15:41:50;18.00;56.20
43808;DHT22;29438;50.664;10.098;2023-09-19T15:44:19;17.90;57.10
43808;DHT22;29438;50.664;10.098;2023-09-19T15:46:45;18.00;56.80
43808;DHT22;29438;50.664;10.098;2023-09-19T15:49:11;18.00;55.90
43808;DHT22;29438;50.664;10.098;2023-09-19T15:51:38;17.90;56.50
43808;DHT22;29438;50.664;10.098;2023-09-19T15:54:09;17.80;56.60
43808;DHT22;29438;50.664;10.098;2023-09-19T15:56:36;17.70;56.70
43808;DHT22;29438;50.664;10.098;2023-09-19T15:59:01;17.70;57.20
43808;DHT22;29438;50.664;10.098;2023-09-19T16:01:27;17.70;57.90